Карточка аэропорта UNTT

Внимание!
Информация на этой странице в стадии наполнения.
Если вы не увидели какой-то информации, или заметили неточность - пожалуйста сообщите нам!
Спасибо!
Команда RU-STAFF
Название аэропортаБогашево
Название аэропорта (англ.)Bogashevo
Превышение597 ft. (182 m.)
Координаты56°22.2', 85°12.6'
Высота перехода1000m
Эшелон переходаQFE>=743mm:FL040; QFE<743mm:FL050
Коды ответчика5230-5247
Зона ОрВДНовосибирск РПИ (UNNT)
Данные METARUNTT 230500Z 24004MPS 9999 SCT022 23/18 Q1006 R21/290250 NOSIG RMK QFE739
Проноз погоды (TAF)UNTT 230500Z 2306/2315 27003G08MPS 8000 BKN016CB TEMPO 2309/2315 -TSRA
NOTAMshow/hide NOTAM
AWOS   TABLE

Информация о ВПП

ВПП Длина ВПП (м.) Покрытие Курс ВПП Частота ILS
212500Асфальтобетон205110.3
032500Асфальтобетон25 

Диспетчерские позиции




Спутниковое изображение